createdAt,value
2023-05-21T00:01:48.308Z,14.03
2023-05-21T00:04:16.258Z,14.57
2023-05-21T00:06:44.141Z,14.57
2023-05-21T00:09:13.679Z,15.73
2023-05-21T00:11:41.700Z,14.17
2023-05-21T00:14:09.701Z,13.47
2023-05-21T00:16:37.647Z,13.40
2023-05-21T00:19:06.176Z,13.17
2023-05-21T00:21:34.129Z,13.43
2023-05-21T00:24:02.050Z,14.33
2023-05-21T00:26:31.536Z,14.50
2023-05-21T00:29:00.727Z,14.60
2023-05-21T00:31:28.665Z,13.57
2023-05-21T00:33:56.606Z,13.67
2023-05-21T00:36:25.222Z,14.57
2023-05-21T00:38:53.518Z,14.10
2023-05-21T00:41:23.018Z,13.97
2023-05-21T00:43:52.784Z,14.37
2023-05-21T00:46:21.611Z,13.63
2023-05-21T00:48:49.907Z,13.20
2023-05-21T00:51:18.606Z,13.40
2023-05-21T00:53:46.944Z,14.47
2023-05-21T00:56:14.870Z,14.40
2023-05-21T00:58:42.984Z,14.17
2023-05-21T01:01:14.094Z,13.73
2023-05-21T01:03:42.305Z,17.47
2023-05-21T01:06:11.431Z,13.43
2023-05-21T01:08:40.664Z,13.70
2023-05-21T01:11:09.465Z,14.20
2023-05-21T01:13:40.162Z,14.53
2023-05-21T01:16:09.276Z,15.07
2023-05-21T01:18:39.192Z,14.27
2023-05-21T01:21:09.653Z,15.97
2023-05-21T01:23:39.100Z,15.33
2023-05-21T01:26:08.462Z,14.97
2023-05-21T01:28:36.717Z,15.30
2023-05-21T01:31:18.105Z,14.40
2023-05-21T01:33:49.828Z,14.87
2023-05-21T01:36:21.746Z,16.20
2023-05-21T01:38:56.175Z,15.30
2023-05-21T01:41:26.117Z,15.20
2023-05-21T01:43:55.251Z,15.20
2023-05-21T01:46:27.328Z,15.30
2023-05-21T01:48:56.905Z,16.30
2023-05-21T01:51:25.946Z,15.10
2023-05-21T01:53:55.364Z,15.90
2023-05-21T01:56:25.871Z,16.37
2023-05-21T01:58:53.785Z,16.10
2023-05-21T02:01:21.762Z,16.60
2023-05-21T02:03:49.839Z,15.67
2023-05-21T02:06:17.967Z,15.87
2023-05-21T02:08:46.541Z,15.50
2023-05-21T02:11:15.842Z,16.67
2023-05-21T02:13:45.998Z,16.87
2023-05-21T02:16:15.085Z,16.67
2023-05-21T02:18:43.401Z,17.20
2023-05-21T02:21:12.096Z,16.60
2023-05-21T02:23:40.049Z,17.30
2023-05-21T02:26:07.939Z,23.07
2023-05-21T02:28:37.374Z,17.00
2023-05-21T02:31:05.307Z,18.30
2023-05-21T02:33:33.275Z,16.80
2023-05-21T02:36:01.166Z,17.33
2023-05-21T02:38:29.330Z,16.37
2023-05-21T02:40:57.753Z,17.93
2023-05-21T02:43:25.686Z,17.57
2023-05-21T02:45:55.161Z,17.60
2023-05-21T02:48:23.126Z,17.97
2023-05-21T02:50:51.123Z,18.73
2023-05-21T02:53:19.111Z,17.70
2023-05-21T02:55:47.246Z,18.57
2023-05-21T02:58:15.255Z,20.53
2023-05-21T03:00:43.317Z,19.33
2023-05-21T03:03:12.822Z,18.47
2023-05-21T03:05:41.281Z,19.13
2023-05-21T03:08:09.252Z,18.47
2023-05-21T03:10:37.188Z,19.30
2023-05-21T03:13:08.211Z,18.57
2023-05-21T03:15:39.295Z,19.80
2023-05-21T03:18:07.574Z,19.63
2023-05-21T03:20:43.437Z,19.13
2023-05-21T03:23:14.221Z,18.67
2023-05-21T03:25:45.821Z,19.40
2023-05-21T03:28:13.873Z,19.57
2023-05-21T03:30:49.572Z,18.93
2023-05-21T03:33:35.797Z,19.33
2023-05-21T03:36:16.194Z,19.90
2023-05-21T03:38:44.134Z,24.07
2023-05-21T03:41:12.139Z,19.70
2023-05-21T03:43:41.568Z,20.57
2023-05-21T03:46:09.567Z,22.03
2023-05-21T03:48:40.622Z,19.40
2023-05-21T03:51:10.007Z,20.60
2023-05-21T03:53:39.442Z,20.33
2023-05-21T03:56:07.887Z,21.13
2023-05-21T03:58:35.890Z,20.43
2023-05-21T04:01:04.621Z,20.97
2023-05-21T04:03:36.758Z,21.60
2023-05-21T04:06:07.055Z,20.33
2023-05-21T04:08:34.999Z,19.53
2023-05-21T04:11:04.239Z,20.90
2023-05-21T04:13:32.171Z,20.07
2023-05-21T04:16:00.221Z,20.60
2023-05-21T04:18:28.260Z,20.73
2023-05-21T04:20:56.236Z,20.10
2023-05-21T04:23:24.251Z,22.63
2023-05-21T04:25:53.969Z,19.97
2023-05-21T04:28:24.183Z,20.20
2023-05-21T04:30:52.265Z,20.53
2023-05-21T04:33:20.360Z,19.27
2023-05-21T04:35:50.632Z,19.67
2023-05-21T04:38:19.826Z,19.93
2023-05-21T04:40:48.431Z,20.53
2023-05-21T04:43:17.075Z,20.70
2023-05-21T04:45:47.269Z,20.53
2023-05-21T04:48:15.712Z,20.00
2023-05-21T04:50:43.725Z,20.13
2023-05-21T04:53:12.212Z,20.57
2023-05-21T04:55:40.468Z,19.50
2023-05-21T04:58:08.357Z,19.07
2023-05-21T05:00:37.757Z,18.37
2023-05-21T05:03:07.987Z,18.50
2023-05-21T05:05:36.207Z,19.17
2023-05-21T05:08:04.299Z,18.67
2023-05-21T05:10:32.244Z,19.70
2023-05-21T05:13:01.179Z,19.20
2023-05-21T05:15:31.087Z,18.37
2023-05-21T05:17:59.456Z,18.83
2023-05-21T05:20:30.841Z,20.80
2023-05-21T05:22:58.807Z,18.80
2023-05-21T05:25:27.631Z,19.90
2023-05-21T05:27:55.655Z,18.60
2023-05-21T05:30:23.764Z,18.70
2023-05-21T05:32:52.663Z,19.40
2023-05-21T05:35:20.773Z,19.23
2023-05-21T05:37:50.047Z,18.43
2023-05-21T05:40:18.136Z,18.13
2023-05-21T05:42:46.411Z,18.63
2023-05-21T05:45:16.898Z,19.53
2023-05-21T05:47:44.850Z,18.90
2023-05-21T05:50:13.438Z,18.03
2023-05-21T05:52:42.006Z,18.60
2023-05-21T05:55:12.654Z,17.27
2023-05-21T05:57:40.716Z,18.97
2023-05-21T06:00:14.626Z,18.17
2023-05-21T06:02:48.067Z,18.17
2023-05-21T06:05:16.482Z,17.63
2023-05-21T06:07:44.504Z,18.53
2023-05-21T06:10:13.805Z,18.27
2023-05-21T06:12:42.474Z,18.73
2023-05-21T06:15:11.107Z,17.70
2023-05-21T06:17:39.077Z,18.10
2023-05-21T06:20:09.374Z,19.07
2023-05-21T06:22:37.835Z,18.00
2023-05-21T06:25:10.611Z,19.73
2023-05-21T06:27:40.076Z,16.90
2023-05-21T06:30:14.992Z,18.47
2023-05-21T06:32:44.008Z,17.20
2023-05-21T06:35:12.052Z,19.90
2023-05-21T06:37:40.359Z,17.00
2023-05-21T06:40:09.932Z,16.53
2023-05-21T06:42:38.386Z,16.53
2023-05-21T06:45:30.736Z,16.23
2023-05-21T06:48:02.597Z,16.30
2023-05-21T06:50:30.839Z,16.20
2023-05-21T06:52:58.838Z,15.97
2023-05-21T06:55:26.858Z,16.07
2023-05-21T06:58:23.972Z,16.10
2023-05-21T07:00:53.763Z,15.33
2023-05-21T07:03:22.600Z,15.63
2023-05-21T07:05:50.823Z,14.57
2023-05-21T07:08:19.824Z,15.03
2023-05-21T07:10:47.695Z,13.80
2023-05-21T07:13:16.442Z,15.17
2023-05-21T07:15:44.411Z,15.40
2023-05-21T07:18:13.988Z,14.80
2023-05-21T07:20:41.949Z,14.67
2023-05-21T07:23:13.630Z,13.93
2023-05-21T07:25:41.518Z,13.27
2023-05-21T07:28:09.522Z,13.27
2023-05-21T07:30:37.893Z,14.87
2023-05-21T07:33:12.532Z,12.97
2023-05-21T07:35:41.954Z,13.20
2023-05-21T07:38:09.913Z,12.13
2023-05-21T07:40:38.697Z,12.93
2023-05-21T07:43:06.609Z,11.03
2023-05-21T07:45:36.278Z,12.33
2023-05-21T07:48:06.019Z,11.47
2023-05-21T07:50:35.920Z,14.13
2023-05-21T07:53:05.543Z,11.37
2023-05-21T07:55:33.583Z,11.57
2023-05-21T07:58:01.675Z,11.57
2023-05-21T08:00:43.771Z,11.57
2023-05-21T08:03:12.958Z,10.83
2023-05-21T08:05:41.104Z,11.23
2023-05-21T08:08:11.133Z,10.93
2023-05-21T08:10:39.840Z,11.30
2023-05-21T08:13:07.830Z,10.97
2023-05-21T08:15:36.292Z,10.43
2023-05-21T08:18:04.678Z,10.10
2023-05-21T08:20:34.241Z,10.10
2023-05-21T08:23:02.814Z,10.37
2023-05-21T08:25:39.440Z,10.00
2023-05-21T08:28:08.411Z,10.40
2023-05-21T08:30:36.680Z,9.87
2023-05-21T08:33:04.691Z,9.70
2023-05-21T08:35:34.837Z,9.90
2023-05-21T08:38:23.080Z,9.40
2023-05-21T08:41:01.198Z,9.00
2023-05-21T08:43:31.028Z,14.83
2023-05-21T08:46:01.832Z,8.93
2023-05-21T08:48:33.624Z,9.80
2023-05-21T08:51:01.938Z,10.10
2023-05-21T08:53:38.989Z,10.10
2023-05-21T08:56:13.093Z,8.37
2023-05-21T08:58:50.194Z,10.33
2023-05-21T09:01:21.924Z,9.10
2023-05-21T09:04:04.861Z,9.53
2023-05-21T09:06:36.640Z,8.50
2023-05-21T09:09:10.944Z,9.13
2023-05-21T09:11:47.155Z,8.50
2023-05-21T09:14:15.923Z,8.63
2023-05-21T09:17:04.368Z,9.47
2023-05-21T09:19:33.117Z,9.63
2023-05-21T09:22:03.725Z,8.20
2023-05-21T09:24:35.717Z,8.90
2023-05-21T09:27:07.551Z,9.80
2023-05-21T09:29:36.559Z,8.17
2023-05-21T09:32:07.989Z,8.37
2023-05-21T09:34:37.473Z,8.20
2023-05-21T09:37:16.530Z,10.27
2023-05-21T09:39:54.553Z,11.50
2023-05-21T09:42:23.863Z,13.33
2023-05-21T09:44:53.021Z,11.33
2023-05-21T09:47:22.371Z,8.13
2023-05-21T09:49:50.474Z,10.67
2023-05-21T09:52:24.901Z,7.77
2023-05-21T09:54:53.914Z,8.27
2023-05-21T09:57:26.983Z,10.87
2023-05-21T09:59:55.120Z,8.50
2023-05-21T10:02:23.878Z,8.63
2023-05-21T10:04:54.210Z,7.83
2023-05-21T10:07:25.910Z,8.10
2023-05-21T10:09:55.731Z,9.37
2023-05-21T10:12:26.033Z,8.40
2023-05-21T10:14:59.314Z,8.53
2023-05-21T10:17:28.054Z,8.60
2023-05-21T10:19:56.990Z,11.87
2023-05-21T10:22:26.290Z,7.33
2023-05-21T10:24:58.004Z,7.33
2023-05-21T10:27:27.652Z,9.03
2023-05-21T10:29:58.109Z,8.70
2023-05-21T10:32:28.025Z,8.37
2023-05-21T10:34:56.093Z,7.47
2023-05-21T10:37:26.535Z,6.80
2023-05-21T10:39:54.722Z,6.80
2023-05-21T10:42:38.235Z,7.73
2023-05-21T10:45:10.636Z,10.63
2023-05-21T10:47:54.671Z,9.70
2023-05-21T10:50:57.394Z,9.77
2023-05-21T10:53:32.892Z,7.87
2023-05-21T10:56:16.156Z,7.63
2023-05-21T10:59:12.681Z,6.53
2023-05-21T11:01:41.794Z,7.53
2023-05-21T11:04:12.173Z,7.27
2023-05-21T11:06:40.125Z,6.57
2023-05-21T11:09:13.745Z,6.60
2023-05-21T11:11:46.202Z,8.90
2023-05-21T11:14:39.220Z,8.17
2023-05-21T11:17:13.362Z,6.53
2023-05-21T11:19:42.265Z,6.70
2023-05-21T11:22:11.928Z,7.57
2023-05-21T11:24:41.433Z,7.37
2023-05-21T11:27:09.736Z,6.23
2023-05-21T11:29:44.449Z,5.80
2023-05-21T11:32:14.032Z,7.20
2023-05-21T11:34:47.097Z,7.40
2023-05-21T11:37:33.421Z,7.10
2023-05-21T11:40:27.258Z,6.93
2023-05-21T11:42:55.920Z,6.40
2023-05-21T11:45:30.834Z,6.63
2023-05-21T11:47:58.867Z,6.53
2023-05-21T11:50:27.268Z,9.50
2023-05-21T11:52:56.677Z,5.73
2023-05-21T11:55:26.058Z,8.10
2023-05-21T11:57:55.098Z,5.90
2023-05-21T12:00:24.768Z,7.77
2023-05-21T12:02:55.676Z,8.97
2023-05-21T12:05:24.743Z,7.17
2023-05-21T12:07:54.575Z,7.77
2023-05-21T12:10:23.706Z,7.87
2023-05-21T12:12:56.270Z,5.60
2023-05-21T12:15:27.352Z,12.50
2023-05-21T12:17:55.958Z,5.47
2023-05-21T12:20:24.262Z,5.50
2023-05-21T12:22:52.372Z,6.90
2023-05-21T12:25:20.994Z,8.10
2023-05-21T12:27:52.457Z,6.00
2023-05-21T12:30:21.085Z,5.77
2023-05-21T12:32:50.617Z,5.53
2023-05-21T12:35:23.228Z,6.10
2023-05-21T12:37:51.850Z,8.23
2023-05-21T12:40:20.414Z,5.87
2023-05-21T12:42:48.374Z,8.90
2023-05-21T12:45:18.446Z,6.87
2023-05-21T12:47:55.917Z,8.30
2023-05-21T12:50:24.382Z,8.80
2023-05-21T12:52:55.424Z,6.20
2023-05-21T12:55:25.525Z,6.93
2023-05-21T12:58:02.551Z,7.03
2023-05-21T13:00:30.475Z,6.43
2023-05-21T13:03:00.896Z,5.33
2023-05-21T13:05:28.951Z,6.00
2023-05-21T13:07:56.810Z,10.60
2023-05-21T13:10:24.947Z,5.60
2023-05-21T13:12:52.871Z,8.00
2023-05-21T13:15:21.523Z,7.40
2023-05-21T13:17:50.819Z,7.87
2023-05-21T13:20:21.863Z,5.83
2023-05-21T13:22:51.806Z,6.40
2023-05-21T13:25:21.454Z,6.90
2023-05-21T13:27:50.588Z,6.00
2023-05-21T13:30:19.063Z,8.03
2023-05-21T13:32:47.709Z,6.47
2023-05-21T13:35:16.611Z,6.73
2023-05-21T13:37:46.372Z,6.27
2023-05-21T13:40:15.934Z,6.60
2023-05-21T13:42:45.092Z,6.07
2023-05-21T13:45:14.607Z,6.07
2023-05-21T13:47:43.238Z,6.93
2023-05-21T13:50:12.492Z,6.90
2023-05-21T13:52:40.531Z,6.33
2023-05-21T13:55:11.007Z,6.33
2023-05-21T13:57:40.450Z,7.70
2023-05-21T14:00:12.461Z,5.63
2023-05-21T14:02:42.322Z,5.63
2023-05-21T14:05:11.606Z,6.27
2023-05-21T14:07:40.256Z,8.17
2023-05-21T14:10:10.172Z,10.70
2023-05-21T14:12:38.498Z,6.83
2023-05-21T14:15:07.607Z,7.07
2023-05-21T14:17:35.688Z,6.67
2023-05-21T14:20:03.848Z,5.43
2023-05-21T14:22:32.099Z,5.60
2023-05-21T14:25:00.006Z,9.93
2023-05-21T14:27:29.289Z,6.73
2023-05-21T14:29:57.190Z,5.83
2023-05-21T14:32:25.199Z,6.17
2023-05-21T14:34:53.160Z,6.23
2023-05-21T14:37:21.079Z,5.10
2023-05-21T14:39:49.114Z,8.60
2023-05-21T14:42:17.372Z,6.87
2023-05-21T14:44:47.101Z,6.23
2023-05-21T14:47:15.060Z,7.47
2023-05-21T14:49:42.893Z,9.20
2023-05-21T14:52:10.856Z,5.53
2023-05-21T14:54:38.717Z,4.73
2023-05-21T14:57:06.722Z,5.63
2023-05-21T14:59:34.603Z,5.40
2023-05-21T15:02:04.027Z,6.50
2023-05-21T15:04:31.909Z,5.03
2023-05-21T15:06:59.831Z,5.43
2023-05-21T15:09:27.709Z,7.30
2023-05-21T15:11:55.638Z,5.87
2023-05-21T15:14:23.547Z,6.53
2023-05-21T15:16:51.497Z,9.67
2023-05-21T15:19:20.903Z,9.63
2023-05-21T15:21:51.628Z,5.33
2023-05-21T15:24:19.567Z,7.50
2023-05-21T15:26:49.108Z,8.13
2023-05-21T15:29:17.034Z,6.83
2023-05-21T15:31:44.928Z,5.23
2023-05-21T15:34:13.610Z,5.23
2023-05-21T15:36:43.041Z,6.77
2023-05-21T15:39:10.929Z,5.83
2023-05-21T15:41:38.823Z,8.90
2023-05-21T15:44:06.826Z,13.23
2023-05-21T15:46:34.763Z,7.83
2023-05-21T15:49:02.725Z,5.77
2023-05-21T15:51:30.707Z,12.83
2023-05-21T15:54:00.348Z,10.80
2023-05-21T15:56:28.787Z,6.23
2023-05-21T15:58:58.573Z,6.63
2023-05-21T16:01:27.788Z,10.67
2023-05-21T16:03:56.026Z,5.20
2023-05-21T16:06:24.160Z,5.20
2023-05-21T16:08:52.116Z,7.57
2023-05-21T16:11:21.456Z,6.43
2023-05-21T16:13:49.409Z,8.33
2023-05-21T16:16:17.373Z,5.93
2023-05-21T16:18:45.317Z,4.97
2023-05-21T16:21:13.477Z,6.13
2023-05-21T16:23:41.421Z,6.10
2023-05-21T16:26:10.171Z,6.40
2023-05-21T16:28:39.541Z,5.73
2023-05-21T16:31:08.531Z,10.33
2023-05-21T16:33:36.562Z,11.63
2023-05-21T16:36:04.688Z,8.67
2023-05-21T16:38:32.648Z,7.60
2023-05-21T16:41:00.585Z,7.07
2023-05-21T16:43:28.706Z,5.03
2023-05-21T16:45:58.039Z,8.97
2023-05-21T16:48:25.949Z,6.67
2023-05-21T16:50:53.870Z,8.10
2023-05-21T16:53:21.707Z,5.23
2023-05-21T16:55:49.679Z,4.47
2023-05-21T16:58:17.564Z,5.40
2023-05-21T17:00:46.154Z,5.57
2023-05-21T17:03:15.948Z,7.03
2023-05-21T17:05:44.112Z,6.30
2023-05-21T17:08:12.035Z,8.00
2023-05-21T17:10:39.976Z,6.07
2023-05-21T17:13:20.805Z,5.30
2023-05-21T17:15:51.221Z,6.20
2023-05-21T17:18:20.771Z,4.77
2023-05-21T17:20:48.850Z,4.50
2023-05-21T17:23:24.905Z,5.07
2023-05-21T17:25:53.034Z,5.50
2023-05-21T17:28:20.925Z,6.10
2023-05-21T17:30:52.162Z,4.10
2023-05-21T17:33:22.424Z,4.17
2023-05-21T17:35:50.705Z,4.63
2023-05-21T17:38:18.650Z,5.67
2023-05-21T17:40:46.610Z,4.80
2023-05-21T17:43:17.993Z,4.70
2023-05-21T17:45:51.582Z,4.77
2023-05-21T17:48:24.238Z,7.87
2023-05-21T17:50:52.262Z,7.40
2023-05-21T17:53:20.314Z,5.63
2023-05-21T17:55:48.354Z,5.60
2023-05-21T17:58:16.341Z,8.60
2023-05-21T18:00:44.747Z,6.43
2023-05-21T18:03:12.939Z,5.03
2023-05-21T18:05:42.234Z,7.40
2023-05-21T18:08:10.898Z,4.53
2023-05-21T18:10:38.936Z,4.13
2023-05-21T18:13:06.987Z,4.00
2023-05-21T18:15:35.997Z,5.73
2023-05-21T18:18:04.354Z,6.83
2023-05-21T18:20:32.529Z,5.87
2023-05-21T18:23:01.993Z,7.27
2023-05-21T18:25:29.989Z,4.63
2023-05-21T18:27:57.969Z,4.97
2023-05-21T18:30:25.866Z,6.67
2023-05-21T18:32:53.815Z,4.33
2023-05-21T18:35:21.730Z,4.53
2023-05-21T18:37:49.706Z,5.67
2023-05-21T18:40:21.028Z,4.90
2023-05-21T18:42:49.073Z,8.47
2023-05-21T18:45:16.988Z,6.77
2023-05-21T18:47:44.923Z,4.53
2023-05-21T18:50:14.570Z,7.20
2023-05-21T18:52:42.412Z,5.33
2023-05-21T18:55:11.009Z,4.67
2023-05-21T18:57:40.380Z,7.00
2023-05-21T19:00:09.441Z,5.87
2023-05-21T19:02:37.738Z,6.57
2023-05-21T19:05:06.473Z,4.77
2023-05-21T19:07:34.603Z,5.57
2023-05-21T19:10:02.555Z,4.97
2023-05-21T19:12:31.385Z,5.10
2023-05-21T19:15:00.627Z,4.37
2023-05-21T19:17:28.566Z,5.97
2023-05-21T19:19:56.653Z,6.10
2023-05-21T19:22:24.899Z,5.57
2023-05-21T19:24:53.084Z,4.87
2023-05-21T19:27:21.540Z,7.30
2023-05-21T19:29:49.593Z,4.83
2023-05-21T19:32:20.620Z,5.30
2023-05-21T19:34:48.522Z,4.40
2023-05-21T19:37:16.669Z,5.83
2023-05-21T19:39:44.708Z,4.37
2023-05-21T19:42:12.732Z,6.03
2023-05-21T19:44:41.316Z,5.67
2023-05-21T19:47:09.866Z,5.30
2023-05-21T19:49:39.120Z,13.53
2023-05-21T19:52:07.134Z,6.07
2023-05-21T19:54:35.012Z,5.30
2023-05-21T19:57:03.345Z,10.70
2023-05-21T19:59:31.179Z,8.93
2023-05-21T20:01:59.096Z,5.17
2023-05-21T20:04:26.972Z,6.97
2023-05-21T20:06:56.245Z,6.47
2023-05-21T20:09:24.215Z,4.60
2023-05-21T20:11:52.285Z,5.73
2023-05-21T20:14:20.119Z,6.50
2023-05-21T20:16:48.378Z,6.13
2023-05-21T20:19:16.542Z,5.67
2023-05-21T20:21:44.629Z,7.83
2023-05-21T20:24:13.899Z,6.23
2023-05-21T20:26:44.918Z,7.83
2023-05-21T20:29:12.906Z,4.67
2023-05-21T20:31:41.130Z,4.97
2023-05-21T20:34:10.436Z,6.83
2023-05-21T20:36:40.250Z,5.60
2023-05-21T20:39:09.187Z,5.90
2023-05-21T20:41:38.624Z,5.80
2023-05-21T20:44:06.774Z,6.57
2023-05-21T20:46:38.486Z,5.40
2023-05-21T20:49:06.807Z,5.87
2023-05-21T20:51:34.721Z,6.53
2023-05-21T20:54:02.908Z,4.90
2023-05-21T20:56:41.677Z,6.17
2023-05-21T20:59:12.358Z,5.33
2023-05-21T21:01:40.741Z,6.63
2023-05-21T21:04:10.030Z,4.93
2023-05-21T21:06:40.100Z,5.63
2023-05-21T21:09:08.402Z,6.20
2023-05-21T21:11:36.321Z,6.10
2023-05-21T21:14:04.407Z,7.33
2023-05-21T21:16:33.822Z,6.57
2023-05-21T21:19:01.947Z,5.83
2023-05-21T21:21:29.938Z,5.33
2023-05-21T21:23:57.977Z,6.03
2023-05-21T21:26:26.950Z,6.87
2023-05-21T21:28:56.317Z,6.23
2023-05-21T21:31:24.817Z,5.50
2023-05-21T21:33:54.352Z,7.00
2023-05-21T21:36:22.269Z,6.27
2023-05-21T21:38:50.292Z,7.37
2023-05-21T21:41:20.193Z,5.83
2023-05-21T21:43:48.256Z,5.73
2023-05-21T21:46:16.617Z,6.13
2023-05-21T21:48:44.568Z,5.90
2023-05-21T21:51:15.586Z,6.50
2023-05-21T21:53:43.999Z,5.87
2023-05-21T21:56:12.211Z,5.03
2023-05-21T21:58:40.038Z,5.67
2023-05-21T22:01:07.963Z,6.90
2023-05-21T22:03:35.876Z,7.00
2023-05-21T22:06:03.898Z,15.00
2023-05-21T22:08:33.170Z,8.50
2023-05-21T22:11:01.841Z,7.67
2023-05-21T22:13:30.135Z,6.37
2023-05-21T22:15:58.043Z,5.43
2023-05-21T22:18:39.696Z,5.07
2023-05-21T22:21:09.533Z,4.77
2023-05-21T22:23:39.778Z,6.13
2023-05-21T22:26:07.898Z,5.23
2023-05-21T22:28:35.925Z,5.87
2023-05-21T22:31:03.938Z,5.43
2023-05-21T22:33:32.222Z,5.13
2023-05-21T22:36:00.152Z,4.43
2023-05-21T22:38:28.001Z,5.37
2023-05-21T22:40:57.380Z,4.87
2023-05-21T22:43:26.400Z,4.83
2023-05-21T22:45:54.320Z,4.93
2023-05-21T22:48:22.898Z,5.47
2023-05-21T22:50:53.255Z,4.53
2023-05-21T22:53:21.484Z,5.73
2023-05-21T22:55:49.387Z,5.03
2023-05-21T22:58:18.766Z,4.90
2023-05-21T23:00:47.701Z,4.40
2023-05-21T23:03:16.279Z,4.63
2023-05-21T23:05:44.811Z,5.97
2023-05-21T23:08:13.357Z,4.97
2023-05-21T23:10:41.481Z,6.50
2023-05-21T23:13:09.634Z,4.30
2023-05-21T23:15:39.072Z,4.60
2023-05-21T23:18:08.720Z,7.03
2023-05-21T23:20:37.391Z,8.30
2023-05-21T23:23:05.902Z,3.93
2023-05-21T23:25:34.945Z,4.17
2023-05-21T23:28:02.857Z,4.23
2023-05-21T23:30:30.793Z,4.80
2023-05-21T23:33:00.682Z,5.47
2023-05-21T23:35:28.749Z,5.70
2023-05-21T23:37:56.796Z,5.13
2023-05-21T23:40:24.749Z,4.57
2023-05-21T23:42:52.826Z,4.40
2023-05-21T23:45:20.816Z,4.57
2023-05-21T23:47:48.831Z,4.27
2023-05-21T23:50:18.154Z,3.50
2023-05-21T23:52:46.452Z,6.97
2023-05-21T23:55:14.830Z,4.10
2023-05-21T23:57:42.910Z,5.47
